Time;durP1;ratioP1;P1;durP2;ratioP2;P2;SDS_P1;SDS_P2;PMS_P1;PMS_P2;Temp;Humidity;BMP_temperature;BMP_pressure;BME280_temperature;BME280_humidity;BME280_pressure;Samples;Min_cycle;Max_cycle;Signal;HPM_P1;HPM_P2
2024/03/01 00:00:28;;;;;;;16.52;9.23;;;7.30;99.90;;;-144.05;50.37;56972.03;5016418;28;20040;-81
2024/03/01 00:02:54;;;;;;;20.10;9.73;;;;;;;-144.05;50.62;56957.16;5016872;28;20030;-80
2024/03/01 00:05:21;;;;;;;18.73;10.00;;;;;;;-144.05;50.55;56989.00;5012636;28;20438;-81
2024/03/01 00:07:47;;;;;;;16.58;9.80;;;6.60;99.90;;;-144.05;50.95;56957.16;5010590;28;20042;-81
2024/03/01 00:10:12;;;;;;;18.95;10.48;;;7.50;99.90;;;-144.05;51.74;56986.91;5010605;28;20030;-80
2024/03/01 00:12:38;;;;;;;18.42;10.38;;;7.40;99.90;;;-144.05;51.84;56976.28;5011760;28;20088;-82
2024/03/01 00:15:05;;;;;;;20.02;10.45;;;10.70;99.90;;;-144.05;51.99;56989.00;5012229;28;20548;-81
2024/03/01 00:17:31;;;;;;;18.08;10.63;;;6.40;99.90;;;-144.05;52.08;56967.78;5018890;28;20046;-82
2024/03/01 00:19:57;;;;;;;17.48;10.32;;;7.80;99.90;;;-144.05;52.31;56961.41;5019709;28;20041;-82
2024/03/01 00:22:23;;;;;;;19.05;10.98;;;7.30;99.90;;;-144.05;52.53;56972.03;5020167;28;20026;-83
2024/03/01 00:24:48;;;;;;;19.00;10.70;;;6.90;99.90;;;-144.05;52.53;56986.91;5018746;28;20036;-81
2024/03/01 00:27:14;;;;;;;20.40;11.43;;;7.20;99.90;;;-144.05;53.10;56986.91;5018037;28;20026;-80
2024/03/01 00:29:41;;;;;;;19.90;11.63;;;;;;;-144.05;53.11;56963.53;5011255;28;20030;-79
2024/03/01 00:32:07;;;;;;;20.52;10.48;;;7.00;99.90;;;-144.05;53.14;56957.16;5009889;28;20029;-79
2024/03/01 00:34:32;;;;;;;21.33;11.45;;;6.70;99.90;;;-144.05;53.42;56957.16;5011544;28;20026;-80
2024/03/01 00:36:59;;;;;;;21.48;10.63;;;;;;;-144.05;53.13;56984.78;5011048;28;20585;-80
2024/03/01 00:39:26;;;;;;;18.40;10.85;;;7.70;99.90;;;-144.05;53.18;56967.78;5010082;28;20060;-80
2024/03/01 00:41:51;;;;;;;20.15;10.63;;;6.60;99.90;;;-144.05;53.23;56972.03;5009814;28;20567;-82
2024/03/01 00:44:17;;;;;;;24.60;11.63;;;7.00;99.90;;;-144.05;53.40;56969.91;5011321;28;20152;-79
2024/03/01 00:46:43;;;;;;;20.77;11.10;;;;;;;-144.05;53.18;56948.66;5012606;28;20109;-83
2024/03/01 00:49:10;;;;;;;19.67;10.77;;;;;;;-144.05;53.04;56972.03;5013774;28;20112;-82
2024/03/01 00:51:36;;;;;;;21.25;10.73;;;6.70;99.90;;;-144.05;53.22;56969.91;5013881;28;20042;-78
2024/03/01 00:54:02;;;;;;;19.00;11.55;;;7.10;99.90;;;-144.05;53.67;56963.53;5013109;28;20038;-81
2024/03/01 00:56:28;;;;;;;20.40;11.60;;;;;;;-144.05;53.93;56955.03;5013122;28;20026;-83
2024/03/01 00:58:54;;;;;;;19.50;11.48;;;6.90;99.90;;;-144.05;53.57;56931.66;5014248;28;20411;-79
2024/03/01 01:01:20;;;;;;;19.45;10.57;;;7.60;99.90;;;-144.05;53.90;56950.78;5014071;28;20032;-82
2024/03/01 01:03:45;;;;;;;18.92;10.95;;;6.50;99.90;;;-144.05;53.90;56948.66;5013908;28;20049;-78
2024/03/01 01:06:11;;;;;;;24.05;11.90;;;7.70;99.90;;;-144.05;53.82;56967.78;5012424;28;20042;-81
2024/03/01 01:08:37;;;;;;;19.48;10.63;;;10.70;99.90;;;-144.05;54.10;56980.53;5012433;28;20017;-81
2024/03/01 01:11:03;;;;;;;18.73;11.45;;;7.10;99.90;;;-144.05;54.13;56993.25;5014613;28;20030;-82
2024/03/01 01:13:29;;;;;;;20.02;11.15;;;;;;;-144.05;53.91;56957.16;5016842;28;20070;-83
2024/03/01 01:15:55;;;;;;;18.13;11.38;;;10.50;99.90;;;-144.05;53.91;56950.78;5015968;28;20441;-79
2024/03/01 01:18:22;;;;;;;19.40;11.20;;;;;;;-144.05;53.92;56978.41;5016086;28;20021;-84
2024/03/01 01:20:49;;;;;;;19.45;11.88;;;;;;;-144.05;54.66;56978.41;5014957;28;20089;-83
2024/03/01 01:23:14;;;;;;;20.05;11.15;;;6.90;99.90;;;-144.05;54.65;56967.78;5014896;28;20109;-83
2024/03/01 01:25:44;;;;;;;19.65;11.32;;;;;;;-144.05;54.91;56989.00;5016483;28;20113;-82
2024/03/01 01:28:10;;;;;;;24.50;12.00;;;14.20;99.90;;;-144.05;54.66;56967.78;5015859;28;20037;-81
2024/03/01 01:30:37;;;;;;;21.48;11.25;;;;;;;-144.05;54.71;57001.75;5014879;28;20022;-82
2024/03/01 01:33:04;;;;;;;18.90;10.77;;;;;;;-144.05;54.90;56955.03;5015464;28;20395;-82
2024/03/01 01:35:30;;;;;;;22.23;12.40;;;;;;;-144.05;55.18;56991.13;5013549;28;20034;-81
2024/03/01 01:37:57;;;;;;;17.60;11.48;;;7.00;99.90;;;-144.05;55.01;56976.28;5014239;28;20033;-82
2024/03/01 01:40:23;;;;;;;21.52;11.98;;;10.50;99.90;;;-144.05;55.46;56980.53;5007174;28;20117;-83
2024/03/01 01:42:54;;;;;;;21.42;11.55;;;6.60;99.90;;;-144.05;55.36;56972.03;5013844;28;20147;-83
2024/03/01 01:45:21;;;;;;;19.05;10.98;;;;;;;-144.05;54.92;56972.03;5013876;28;20030;-81
2024/03/01 01:47:48;;;;;;;19.70;11.05;;;7.30;99.90;;;-144.05;55.22;56989.00;5012120;28;20491;-82
2024/03/01 01:50:16;;;;;;;20.67;11.88;;;;;;;-144.05;55.90;56974.16;5012312;28;20026;-82
2024/03/01 01:52:44;;;;;;;18.60;11.20;;;6.90;99.90;;;-144.05;55.65;56965.66;5013488;28;20523;-81
2024/03/01 01:55:11;;;;;;;20.05;11.32;;;9.20;99.90;;;-144.05;55.93;56950.78;5013544;28;20034;-80
2024/03/01 01:57:45;;;;;;;21.58;11.60;;;8.00;99.90;;;-144.05;56.19;56972.03;5012342;28;20026;-79
2024/03/01 02:00:13;;;;;;;19.92;11.93;;;7.20;99.90;;;-144.05;56.49;56980.53;5012915;28;20137;-81
2024/03/01 02:02:42;;;;;;;20.70;11.95;;;9.00;99.90;;;-144.05;56.70;56965.66;5012078;28;20457;-81
2024/03/01 02:05:08;;;;;;;21.48;11.57;;;7.20;99.90;;;-144.05;56.37;56972.03;5011588;28;20036;-82
2024/03/01 02:07:36;;;;;;;22.88;10.98;;;;;;;-144.05;56.13;56969.91;5011557;28;20550;-83
2024/03/01 02:10:16;;;;;;;21.95;12.15;;;7.20;99.90;;;-144.05;56.25;56957.16;5012945;28;20651;-81
2024/03/01 02:13:01;;;;;;;19.13;10.68;;;7.80;99.90;;;-144.05;56.99;56989.00;5013618;28;20487;-82
2024/03/01 02:15:29;;;;;;;19.30;10.73;;;7.80;99.90;;;-144.05;57.07;56946.53;5012963;28;20100;-81
2024/03/01 02:17:57;;;;;;;20.20;10.88;;;8.20;99.90;;;-144.05;57.77;56944.41;5011127;28;20037;-80
2024/03/01 02:20:30;;;;;;;19.05;11.60;;;6.70;99.90;;;-144.05;57.63;56967.78;5014899;28;20033;-80
2024/03/01 02:23:18;;;;;;;19.10;10.63;;;7.40;99.90;;;-144.05;58.12;56986.91;5011888;28;20092;-81
2024/03/01 02:25:44;;;;;;;18.95;10.15;;;6.80;99.90;;;-144.05;58.00;56980.53;5025518;28;20033;-83
2024/03/01 02:28:11;;;;;;;19.83;10.93;;;;;;;-144.05;58.31;56980.53;5022916;28;20078;-82
2024/03/01 02:30:37;;;;;;;19.38;10.35;;;;;;;-144.05;58.56;56972.03;5027418;28;20018;-81
2024/03/01 02:33:03;;;;;;;18.27;10.07;;;6.80;99.90;;;-144.05;58.45;56991.13;5012239;28;20041;-80
2024/03/01 02:35:29;;;;;;;18.42;10.43;;;;;;;-144.05;58.80;56982.66;5012430;28;20053;-80
2024/03/01 02:37:56;;;;;;;18.90;10.73;;;;;;;-144.05;59.04;56993.25;5011846;28;20057;-79
2024/03/01 02:40:22;;;;;;;19.27;11.02;;;;;;;-144.05;59.33;56991.13;5011066;28;20034;-81
2024/03/01 02:42:48;;;;;;;19.58;10.93;;;6.70;99.90;;;-144.05;59.40;56974.16;5011144;28;20033;-80
2024/03/01 02:45:14;;;;;;;17.98;10.75;;;6.80;99.90;;;-144.05;59.06;56972.03;5010908;28;20030;-80
2024/03/01 02:47:39;;;;;;;20.58;11.57;;;8.70;99.90;;;-144.05;59.50;56950.78;5011823;28;20137;-79
2024/03/01 02:50:09;;;;;;;20.67;11.20;;;;;;;-144.05;59.68;56969.91;5011992;28;20470;-80
2024/03/01 02:52:35;;;;;;;17.13;10.65;;;6.70;99.90;;;-144.05;60.04;56980.53;5022986;28;20026;-82
2024/03/01 02:55:04;;;;;;;20.42;10.57;;;7.90;99.90;;;-144.05;59.65;56980.53;5014327;28;20041;-80
2024/03/01 02:57:30;;;;;;;18.20;10.40;;;8.90;99.90;;;-144.05;59.41;56982.66;5012671;28;20021;-79
2024/03/01 02:59:57;;;;;;;17.85;10.38;;;;;;;-144.05;59.84;56989.00;5011119;28;20046;-81
2024/03/01 03:02:23;;;;;;;24.08;11.93;;;;;;;-144.05;59.79;56984.78;5012106;28;20095;-82
2024/03/01 03:04:50;;;;;;;19.30;11.35;;;;;;;-144.05;60.09;56957.16;5012519;28;20717;-81
2024/03/01 03:07:16;;;;;;;19.42;10.57;;;;;;;-144.05;59.62;56991.13;5009647;28;20061;-82
2024/03/01 03:09:43;;;;;;;20.88;11.05;;;7.90;99.90;;;-144.05;60.51;56959.28;5012351;28;20034;-81
2024/03/01 03:12:11;;;;;;;19.98;11.88;;;8.50;99.90;;;-144.05;60.66;56969.91;5011557;28;20053;-85
2024/03/01 03:14:37;;;;;;;18.65;10.95;;;6.40;99.90;;;-144.05;60.79;56984.78;5014229;28;20076;-84
2024/03/01 03:17:07;;;;;;;23.25;11.98;;;7.90;99.90;;;-144.05;61.09;56980.53;5013600;28;20554;-82
2024/03/01 03:19:36;;;;;;;23.35;12.23;;;7.80;99.90;;;-144.05;61.42;56997.50;5012746;28;20080;-83
2024/03/01 03:22:08;;;;;;;22.73;12.32;;;;;;;-144.05;61.77;56986.91;5012527;28;20089;-79
2024/03/01 03:24:37;;;;;;;20.73;11.95;;;;;;;-144.05;61.77;56969.91;5011892;28;20113;-82
2024/03/01 03:27:03;;;;;;;23.13;11.27;;;6.80;99.90;;;-144.05;62.26;56984.78;5013172;28;20037;-81
2024/03/01 03:29:30;;;;;;;21.45;12.23;;;;;;;-144.05;62.47;56978.41;5010941;28;20053;-81
2024/03/01 03:31:56;;;;;;;19.80;11.02;;;6.80;99.90;;;-144.05;62.15;56976.28;5011862;28;20113;-86
2024/03/01 03:34:22;;;;;;;18.73;10.88;;;;;;;-144.05;62.01;56978.41;5014944;28;20430;-83
2024/03/01 03:36:49;;;;;;;23.33;11.98;;;6.90;99.90;;;-144.05;62.68;56995.38;5011256;28;20049;-83
2024/03/01 03:39:15;;;;;;;22.92;12.75;;;7.10;99.90;;;-144.05;63.33;56993.25;5010425;28;20142;-80
2024/03/01 03:41:42;;;;;;;19.73;11.27;;;6.70;99.90;;;-144.05;63.23;56986.91;5010590;28;20129;-82
2024/03/01 03:44:08;;;;;;;22.65;12.07;;;;;;;-144.05;62.82;56946.53;5011935;28;20076;-83
2024/03/01 03:46:35;;;;;;;19.50;10.63;;;6.90;99.90;;;-144.05;63.64;56976.28;5011830;28;20057;-84
2024/03/01 03:49:07;;;;;;;21.52;11.77;;;7.50;99.90;;;-144.05;63.94;57008.13;5011417;28;20136;-82
2024/03/01 03:51:37;;;;;;;21.67;11.32;;;7.40;99.90;;;-144.05;64.25;56993.25;5006612;28;20387;-82
2024/03/01 03:54:04;;;;;;;20.63;11.70;;;6.70;99.90;;;-144.05;64.45;56972.03;5011951;28;20608;-83
2024/03/01 03:56:31;;;;;;;20.98;11.65;;;7.50;99.90;;;-144.05;64.60;56967.78;5012286;28;20018;-84
2024/03/01 03:58:58;;;;;;;23.48;11.18;;;6.80;99.90;;;-144.05;65.02;56957.16;5010709;28;20053;-83
2024/03/01 04:01:24;;;;;;;21.50;11.68;;;6.80;99.90;;;-144.05;64.78;56978.41;5013038;28;20052;-85
2024/03/01 04:03:51;;;;;;;19.55;11.38;;;7.00;99.90;;;-144.05;65.09;56959.28;5012937;28;20484;-84
2024/03/01 04:06:18;;;;;;;21.90;11.60;;;8.00;99.90;;;-144.05;65.66;56969.91;5011796;28;20499;-84
2024/03/01 04:08:44;;;;;;;23.08;11.38;;;7.10;99.90;;;-144.05;66.07;56976.28;5011738;28;20026;-82
2024/03/01 04:11:10;;;;;;;24.88;12.35;;;6.50;99.90;;;-144.05;66.92;56989.00;5013006;28;20033;-83
2024/03/01 04:13:37;;;;;;;19.83;11.07;;;7.40;99.90;;;-144.05;67.67;56946.53;5013089;28;20023;-84
2024/03/01 04:16:06;;;;;;;21.60;11.70;;;6.80;99.90;;;-144.05;67.30;56948.66;5012522;28;20515;-83
2024/03/01 04:18:36;;;;;;;19.25;10.70;;;6.70;99.90;;;-144.05;66.79;56974.16;5006396;28;20079;-82
2024/03/01 04:21:07;;;;;;;20.17;10.82;;;7.10;99.90;;;-144.05;67.42;56993.25;5012529;28;20042;-83
2024/03/01 04:23:33;;;;;;;18.90;10.57;;;7.00;99.90;;;-144.05;67.73;56957.16;5010950;28;20160;-84
2024/03/01 04:25:59;;;;;;;19.05;10.50;;;6.90;99.90;;;-144.05;67.89;56950.78;5016623;28;20084;-86
2024/03/01 04:28:25;;;;;;;20.67;10.60;;;7.50;99.90;;;-144.05;68.11;56950.78;5016241;28;20146;-80
2024/03/01 04:30:53;;;;;;;19.63;10.68;;;;;;;-144.05;68.03;56957.16;5014902;28;20064;-82
2024/03/01 04:33:20;;;;;;;19.50;10.50;;;;;;;-144.05;68.90;56963.53;5016804;28;20112;-84
2024/03/01 04:35:46;;;;;;;22.02;11.02;;;7.20;99.90;;;-144.05;68.44;56986.91;5017073;28;20034;-81
2024/03/01 04:38:13;;;;;;;19.42;10.43;;;;;;;-144.05;69.26;56980.53;5014921;28;20064;-81
2024/03/01 04:40:40;;;;;;;21.60;10.80;;;7.20;99.90;;;-144.05;69.56;56974.16;5016833;28;20070;-82
2024/03/01 04:43:07;;;;;;;15.85;9.27;;;7.80;99.90;;;-144.05;69.85;56978.41;5016613;28;20026;-82
2024/03/01 04:45:34;;;;;;;18.88;10.65;;;7.10;99.90;;;-144.05;69.73;56986.91;5016850;28;20018;-83
2024/03/01 04:48:00;;;;;;;17.27;9.85;;;6.20;99.90;;;-144.05;69.95;56967.78;5014487;28;20443;-83
2024/03/01 04:50:27;;;;;;;19.70;10.95;;;7.50;99.90;;;-144.05;69.91;56972.03;5016289;28;20029;-84
2024/03/01 04:52:53;;;;;;;21.27;10.95;;;7.10;99.90;;;-144.05;70.31;56980.53;5016519;28;20522;-85
2024/03/01 04:55:19;;;;;;;17.98;10.35;;;6.70;99.90;;;-144.05;70.05;56982.66;5032958;28;20094;-83
2024/03/01 04:57:45;;;;;;;17.10;10.15;;;;;;;-144.05;70.37;56965.66;5016432;28;20018;-83
2024/03/01 05:00:13;;;;;;;19.77;10.23;;;8.30;99.90;;;-144.05;70.56;56950.78;5015586;28;20084;-83
2024/03/01 05:02:43;;;;;;;18.33;9.63;;;8.50;99.90;;;-144.05;70.71;56974.16;5014133;28;20038;-81
2024/03/01 05:05:18;;;;;;;19.38;9.85;;;6.90;99.90;;;-144.05;70.47;56959.28;5013804;28;20036;-82
2024/03/01 05:07:48;;;;;;;18.67;10.45;;;;;;;-144.05;70.46;56961.41;5014527;28;20037;-81
2024/03/01 05:10:21;;;;;;;17.33;10.40;;;;;;;-144.05;71.47;56965.66;5020090;28;20033;-83
2024/03/01 05:12:49;;;;;;;20.88;10.25;;;7.20;99.90;;;-144.05;71.91;56984.78;5031980;28;20037;-79
2024/03/01 05:15:16;;;;;;;20.25;10.20;;;;;;;-144.05;71.32;56976.28;5032098;28;20046;-82
2024/03/01 05:17:45;;;;;;;17.73;9.40;;;8.60;99.90;;;-144.05;71.98;56974.16;5016684;28;20026;-81
2024/03/01 05:20:14;;;;;;;17.05;9.25;;;8.30;99.90;;;-144.05;71.17;56980.53;5036605;28;20037;-79
2024/03/01 05:22:43;;;;;;;22.08;11.23;;;6.90;99.90;;;-144.05;71.28;56952.91;5015200;28;20113;-80
2024/03/01 05:25:16;;;;;;;18.05;10.18;;;6.60;99.90;;;-144.05;71.28;56974.16;5012823;28;20091;-82
2024/03/01 05:27:48;;;;;;;19.95;9.95;;;7.50;99.90;;;-144.05;71.04;56993.25;5013978;28;20145;-81
2024/03/01 05:30:19;;;;;;;16.35;9.50;;;7.50;99.90;;;-144.05;71.32;56950.78;5013942;28;20033;-82
2024/03/01 05:32:48;;;;;;;15.43;9.15;;;7.10;99.90;;;-144.05;71.65;56978.41;5014261;28;20328;-80
2024/03/01 05:35:17;;;;;;;16.55;9.50;;;6.40;99.90;;;-144.05;71.75;56959.28;5012030;28;20022;-80
2024/03/01 05:37:46;;;;;;;15.32;9.27;;;7.60;99.90;;;-144.05;73.00;56965.66;5014340;28;20030;-80
2024/03/01 05:40:15;;;;;;;18.38;9.85;;;7.00;99.90;;;-144.05;73.05;56974.16;5027211;28;20033;-82
2024/03/01 05:42:44;;;;;;;21.75;9.88;;;7.90;99.90;;;-144.05;73.48;56967.78;5012564;28;20415;-82
2024/03/01 05:45:12;;;;;;;16.55;9.85;;;7.80;99.90;;;-144.05;73.08;56969.91;5012363;28;20049;-82
2024/03/01 05:47:42;;;;;;;17.95;9.52;;;7.80;99.90;;;-144.05;72.82;56950.78;5013058;28;20038;-80
2024/03/01 05:50:11;;;;;;;16.02;9.32;;;7.80;99.90;;;-144.05;71.97;56942.28;5013641;28;20024;-81
2024/03/01 05:52:41;;;;;;;19.95;9.23;;;6.80;99.90;;;-144.05;71.65;56976.28;5013505;28;20097;-79
2024/03/01 05:55:12;;;;;;;17.65;9.95;;;6.70;99.90;;;-144.05;72.21;56976.28;5016417;28;20030;-84
2024/03/01 05:57:39;;;;;;;18.00;9.50;;;;;;;-144.05;73.47;56978.41;5015851;28;20022;-80
2024/03/01 06:00:26;;;;;;;19.88;9.50;;;7.80;99.90;;;-144.05;72.28;56965.66;5015744;28;20057;-80
2024/03/01 06:02:53;;;;;;;16.42;8.88;;;8.60;99.90;;;-144.05;72.05;56927.41;5014975;28;20053;-84
2024/03/01 06:05:19;;;;;;;17.40;9.65;;;7.20;99.90;;;-144.05;72.50;56955.03;5014494;28;20106;-81
2024/03/01 06:07:46;;;;;;;14.98;8.88;;;7.40;99.90;;;-144.05;72.67;56972.03;5013957;28;20030;-82
2024/03/01 06:10:15;;;;;;;16.73;8.90;;;7.90;99.90;;;-144.05;72.56;56959.28;5011711;28;20032;-79
2024/03/01 06:12:42;;;;;;;17.40;9.20;;;9.00;99.90;;;-144.05;72.49;56955.03;5012851;28;20032;-83
2024/03/01 06:15:08;;;;;;;15.80;9.05;;;8.80;99.90;;;-144.05;72.02;56961.41;5011589;28;20026;-82
2024/03/01 06:17:35;;;;;;;16.23;8.82;;;;;;;-144.05;71.96;56961.41;5012396;28;20136;-80
2024/03/01 06:20:03;;;;;;;14.35;8.63;;;8.10;99.90;;;-144.05;71.92;56974.16;5014329;28;20116;-82
2024/03/01 06:22:30;;;;;;;16.60;9.40;;;7.00;99.90;;;-144.05;71.72;56957.16;5014688;28;20030;-83
2024/03/01 06:24:57;;;;;;;18.73;9.63;;;;;;;-144.05;71.69;56957.16;5011285;28;20112;-82
2024/03/01 06:27:23;;;;;;;18.92;10.25;;;7.20;99.90;;;-144.05;71.36;56967.78;5011351;28;20034;-82
2024/03/01 06:29:49;;;;;;;17.98;9.55;;;7.40;99.90;;;-144.05;71.61;56989.00;5012054;28;20018;-81
2024/03/01 06:32:15;;;;;;;17.38;9.57;;;7.10;99.90;;;-144.05;71.72;56959.28;5019615;28;20125;-81
2024/03/01 06:34:41;;;;;;;15.70;9.05;;;7.30;99.90;;;-144.05;71.88;56944.41;5010954;28;20450;-82
2024/03/01 06:37:07;;;;;;;14.48;8.70;;;;;;;-144.05;71.69;56963.53;5012349;28;20025;-80
2024/03/01 06:39:33;;;;;;;15.20;8.65;;;7.40;99.90;;;-144.05;71.84;56963.53;5014342;28;20025;-81
2024/03/01 06:41:59;;;;;;;15.25;8.63;;;;;;;-144.05;71.46;56908.31;5013970;28;20030;-83
2024/03/01 06:44:25;;;;;;;14.93;9.13;;;7.10;99.90;;;-144.05;71.52;56965.66;5011788;28;20037;-84
2024/03/01 06:46:52;;;;;;;21.95;9.07;;;8.40;99.90;;;-144.05;71.38;56961.41;5012154;28;20626;-80
2024/03/01 06:49:18;;;;;;;17.30;8.35;;;8.00;99.90;;;-144.05;72.14;56952.91;5012146;28;20060;-81
2024/03/01 06:51:45;;;;;;;14.80;8.98;;;11.00;99.90;;;-144.05;71.52;56959.28;5014979;28;20018;-85
2024/03/01 06:54:11;;;;;;;16.48;8.57;;;;;;;-144.05;71.98;56942.28;5013612;28;20121;-81
2024/03/01 06:56:42;;;;;;;17.48;9.18;;;8.50;99.90;;;-144.05;71.76;56967.78;5013188;28;20025;-80
2024/03/01 06:59:09;;;;;;;19.85;9.63;;;;;;;-144.05;71.73;56976.28;5013060;28;20104;-81
2024/03/01 07:01:38;;;;;;;14.15;8.32;;;7.70;99.90;;;-144.05;71.45;56967.78;5014003;28;20362;-81
2024/03/01 07:04:04;;;;;;;13.65;8.30;;;7.10;99.90;;;-144.05;71.14;56982.66;5014408;28;20116;-82
2024/03/01 07:06:32;;;;;;;15.02;8.05;;;8.70;99.90;;;-144.05;70.96;56933.78;5013192;28;20543;-83
2024/03/01 07:08:59;;;;;;;16.00;8.63;;;;;;;-144.05;70.09;56959.28;5013477;28;20033;-83
2024/03/01 07:11:26;;;;;;;14.70;7.57;;;8.40;99.90;;;-144.05;70.32;56955.03;5012040;28;20044;-82
2024/03/01 07:13:52;;;;;;;16.42;8.85;;;8.40;99.90;;;-144.05;70.79;56957.16;5011237;28;20030;-81
2024/03/01 07:16:18;;;;;;;15.23;7.88;;;8.70;99.90;;;-144.05;70.27;56972.03;5012037;28;20034;-80
2024/03/01 07:18:44;;;;;;;14.85;7.65;;;;;;;-144.05;70.39;56908.31;5013655;28;20320;-81
2024/03/01 07:21:10;;;;;;;12.07;7.57;;;13.90;99.90;;;-144.05;69.86;56946.53;5012927;28;20036;-81
2024/03/01 07:23:36;;;;;;;12.60;7.88;;;;;;;-144.05;70.34;56950.78;5013052;28;20021;-82
2024/03/01 07:26:02;;;;;;;11.07;7.40;;;7.70;99.90;;;-144.05;71.56;56965.66;5012485;28;20045;-82
2024/03/01 07:28:28;;;;;;;14.20;7.88;;;13.90;99.90;;;-144.05;70.86;56923.19;5028151;28;20041;-84
2024/03/01 07:30:54;;;;;;;13.93;7.85;;;;;;;-144.05;71.35;56980.53;5012725;28;20026;-85
2024/03/01 07:33:21;;;;;;;16.27;8.55;;;;;;;-144.05;70.84;56974.16;5030881;28;20036;-82
2024/03/01 07:35:47;;;;;;;16.02;8.13;;;7.80;99.90;;;-144.05;71.63;56959.28;5015083;28;20031;-83
2024/03/01 07:38:14;;;;;;;15.95;9.02;;;;;;;-144.05;72.64;56959.28;5013861;28;20030;-81
2024/03/01 07:40:40;;;;;;;13.52;9.50;;;10.80;99.90;;;-144.05;72.93;56942.28;5012846;28;20109;-81
2024/03/01 07:43:06;;;;;;;15.63;9.00;;;;;;;-144.05;72.95;56957.16;5012364;28;20030;-85
2024/03/01 07:45:32;;;;;;;16.70;10.15;;;8.20;99.90;;;-144.05;73.50;56959.28;5013606;28;20040;-84
2024/03/01 07:47:59;;;;;;;16.98;9.23;;;;;;;-144.05;74.13;56961.41;5012258;28;20054;-78
2024/03/01 07:50:26;;;;;;;21.17;10.45;;;;;;;-144.05;74.52;56946.53;5010926;28;20034;-81
2024/03/01 07:52:52;;;;;;;19.48;10.35;;;;;;;-144.05;74.23;56944.41;5012353;28;20033;-81
2024/03/01 07:55:18;;;;;;;17.85;9.80;;;;;;;-144.05;74.51;56965.66;5010990;28;20041;-79
2024/03/01 07:57:45;;;;;;;21.35;9.75;;;;;;;-144.05;74.75;56974.16;5020740;28;20045;-79
2024/03/01 08:00:12;;;;;;;18.50;10.27;;;;;;;-144.05;75.90;56963.53;5027753;28;20091;-84
2024/03/01 08:02:38;;;;;;;15.68;10.38;;;8.30;99.90;;;-144.05;77.70;56959.28;5011309;28;20030;-79
2024/03/01 08:05:06;;;;;;;17.17;10.23;;;7.50;99.90;;;-144.05;79.15;56986.91;5010583;28;20036;-81
2024/03/01 08:07:32;;;;;;;22.92;11.32;;;7.90;99.90;;;-144.05;80.26;56938.03;4959684;28;1410702;-82
2024/03/01 08:09:58;;;;;;;21.00;11.10;;;;;;;-144.05;81.90;56952.91;5011504;28;20033;-81
2024/03/01 08:12:24;;;;;;;19.27;11.25;;;7.10;99.90;;;-144.05;83.56;56980.53;5011816;28;20594;-82
2024/03/01 08:14:52;;;;;;;27.33;12.68;;;6.60;99.90;;;-144.05;84.00;56959.28;5009878;28;20117;-83
2024/03/01 08:17:18;;;;;;;21.35;11.68;;;7.50;99.90;;;-144.05;84.63;56959.28;5023519;28;20518;-83
2024/03/01 08:19:47;;;;;;;24.17;12.27;;;6.70;99.90;;;-144.05;85.43;56974.16;5010195;28;20036;-83
2024/03/01 08:22:20;;;;;;;21.77;12.23;;;8.50;99.90;;;-144.05;86.28;56972.03;5010326;28;20080;-83
2024/03/01 08:24:49;;;;;;;24.50;12.82;;;8.50;99.90;;;-144.05;86.42;56944.41;5019624;28;20424;-84
2024/03/01 08:27:23;;;;;;;19.23;11.05;;;8.30;99.90;;;-144.05;86.53;56963.53;5014919;28;20621;-77
2024/03/01 08:29:49;;;;;;;16.05;9.23;;;7.80;99.90;;;-144.05;85.41;56952.91;5021309;28;20029;-83
2024/03/01 08:32:38;;;;;;;12.90;7.38;;;8.30;99.90;;;-144.05;85.11;56950.78;5012558;28;20032;-83
2024/03/01 08:35:04;;;;;;;12.10;7.45;;;4.00;99.90;;;-144.05;84.48;56965.66;5012810;28;20539;-79
2024/03/01 08:37:31;;;;;;;13.50;7.10;;;7.20;99.90;;;-144.05;84.21;56961.41;5010402;28;20033;-83
2024/03/01 08:39:57;;;;;;;9.13;6.53;;;7.60;99.90;;;-144.05;83.32;56976.28;5011882;28;20428;-80
2024/03/01 08:42:32;;;;;;;11.80;6.57;;;5.00;99.90;;;-144.05;83.67;56965.66;5027243;28;20026;-81
2024/03/01 08:44:59;;;;;;;8.68;6.25;;;7.10;99.90;;;-144.05;83.47;56957.16;5010678;28;20376;-83
2024/03/01 08:47:42;;;;;;;9.02;6.40;;;;;;;-144.05;82.57;56965.66;5012270;28;20037;-78
2024/03/01 08:50:23;;;;;;;9.15;5.78;;;4.70;99.90;;;-144.05;83.49;56950.78;5011445;28;20096;-80
2024/03/01 08:52:49;;;;;;;11.35;5.75;;;6.70;99.90;;;-144.05;84.04;56984.78;5013080;28;20053;-83
2024/03/01 08:55:18;;;;;;;10.30;6.60;;;6.90;99.90;;;-144.05;84.70;56972.03;5014595;28;20092;-80
2024/03/01 08:57:49;;;;;;;9.43;5.97;;;7.50;99.90;;;-144.05;85.36;56972.03;5032035;28;20018;-83
2024/03/01 09:00:26;;;;;;;14.57;7.53;;;7.90;99.90;;;-144.05;84.90;56967.78;5020338;28;20026;-80
2024/03/01 09:02:54;;;;;;;14.43;7.13;;;6.90;99.90;;;-144.05;85.66;56967.78;5019275;28;20037;-83
2024/03/01 09:05:23;;;;;;;13.02;7.32;;;5.40;99.90;;;-144.05;86.81;56957.16;5035531;28;20022;-78
2024/03/01 09:07:50;;;;;;;10.98;6.47;;;4.50;99.90;;;-144.05;86.95;56950.78;5025711;28;20030;-85
2024/03/01 09:10:27;;;;;;;13.30;7.20;;;6.90;99.90;;;-144.05;87.65;56976.28;5020573;28;20062;-82
2024/03/01 09:12:54;;;;;;;10.90;7.03;;;7.10;99.90;;;-144.05;87.77;56944.41;5017855;28;20026;-82
2024/03/01 09:15:25;;;;;;;10.05;6.57;;;4.40;99.90;;;-144.05;88.44;56959.28;5018175;28;20101;-83
2024/03/01 09:17:54;;;;;;;10.60;6.18;;;6.90;99.90;;;-144.05;88.26;56963.53;5018288;28;20054;-82
2024/03/01 09:20:34;;;;;;;12.18;6.50;;;4.60;99.90;;;-144.05;88.57;56972.03;5034014;28;20060;-82
2024/03/01 09:23:03;;;;;;;12.13;7.22;;;7.10;99.90;;;-144.05;87.81;56978.41;5018413;28;20029;-86
2024/03/01 09:25:41;;;;;;;9.27;5.97;;;4.40;99.90;;;-144.05;87.34;56942.28;5016576;28;20108;-84
2024/03/01 09:28:09;;;;;;;10.82;6.40;;;7.10;99.90;;;-144.05;86.82;56946.53;5014066;28;20083;-82
2024/03/01 09:30:35;;;;;;;12.95;8.02;;;7.10;99.90;;;-144.05;86.67;56989.00;5015342;28;20112;-83
2024/03/01 09:33:02;;;;;;;12.63;7.35;;;;;;;-144.05;87.64;56959.28;5013634;28;20091;-82
2024/03/01 09:35:30;;;;;;;12.10;7.72;;;7.50;99.90;;;-144.05;87.17;56955.03;5015545;28;20091;-81
2024/03/01 09:37:56;;;;;;;11.65;7.43;;;8.70;99.90;;;-144.05;86.35;56967.78;5015573;28;20026;-82
2024/03/01 09:40:37;;;;;;;12.50;7.88;;;7.50;99.90;;;-144.05;86.09;56969.91;5016840;28;20034;-81
2024/03/01 09:43:46;;;;;;;10.52;7.15;;;6.50;99.90;;;-144.05;85.72;56967.78;5017320;28;20104;-83
2024/03/01 09:46:58;;;;;;;10.18;6.18;;;8.00;99.90;;;-144.05;86.29;56946.53;5030741;28;20694;-84
2024/03/01 09:49:50;;;;;;;12.25;5.93;;;8.40;99.90;;;-144.05;85.41;56929.53;5013573;28;20032;-83
2024/03/01 09:52:39;;;;;;;9.50;5.25;;;8.40;99.90;;;-144.05;84.68;56986.91;5015378;28;20026;-81
2024/03/01 09:55:40;;;;;;;8.85;6.15;;;6.80;99.90;;;-144.05;84.12;56972.03;5032586;28;20081;-82
2024/03/01 09:59:15;;;;;;;7.20;5.05;;;8.60;99.90;;;-144.05;83.47;56942.28;5016280;28;20030;-81
2024/03/01 10:01:54;;;;;;;8.63;5.07;;;8.90;99.90;;;-144.05;82.12;56944.41;5033149;28;20044;-81
2024/03/01 10:05:19;;;;;;;5.15;4.03;;;7.40;99.90;;;-144.05;81.50;56938.03;5009674;28;20144;-82
2024/03/01 10:09:19;;;;;;;7.18;4.72;;;8.90;99.90;;;-144.05;79.93;56959.28;5010242;28;20026;-81
2024/03/01 10:12:01;;;;;;;5.43;3.58;;;7.10;99.90;;;-144.05;77.93;56942.28;5009204;28;20065;-81
2024/03/01 10:15:03;;;;;;;4.82;3.30;;;7.10;99.90;;;-144.05;78.62;56942.28;4996995;28;20038;-80
2024/03/01 10:18:21;;;;;;;6.38;3.42;;;7.60;99.90;;;-144.05;75.53;56940.16;5010550;28;20034;-81
2024/03/01 10:21:15;;;;;;;5.07;3.63;;;8.90;99.90;;;-144.05;75.19;56942.28;5002417;28;20164;-82
2024/03/01 10:24:29;;;;;;;6.78;3.50;;;7.30;99.90;;;-144.05;74.97;56948.66;5015112;28;20085;-82
2024/03/01 10:27:35;;;;;;;7.00;3.53;;;7.40;99.90;;;-144.05;73.80;56916.81;5028965;28;20025;-79
2024/03/01 10:30:11;;;;;;;5.53;3.92;;;7.50;99.90;;;-144.05;72.83;56948.66;5029360;28;20048;-82